Time;durP1;ratioP1;P1;durP2;ratioP2;P2;SDS_P1;SDS_P2;PMS_P1;PMS_P2;Temp;Humidity;BMP_temperature;BMP_pressure;BME280_temperature;BME280_humidity;BME280_pressure;Samples;Min_cycle;Max_cycle;Signal;HPM_P1;HPM_P2
2022/11/03 00:00:31;;;;;;;12.83;6.53;;;;;;;17.37;42.43;101668.66;4972472;28;20388;-78
2022/11/03 00:02:57;;;;;;;10.18;6.50;;;;;;;17.46;42.05;101668.56;4971655;28;20466;-79
2022/11/03 00:08:06;;;;;;;13.20;6.18;;;;;;;17.40;42.18;101675.50;4970073;28;20390;-78
2022/11/03 00:10:32;;;;;;;12.50;6.30;;;;;;;17.35;42.24;101678.75;4973316;28;20433;-78
2022/11/03 00:12:57;;;;;;;12.40;6.10;;;;;;;17.30;42.64;101677.66;5004507;28;20430;-77
2022/11/03 00:15:23;;;;;;;14.67;6.60;;;;;;;17.32;42.47;101676.47;4988122;28;20958;-77
2022/11/03 00:17:48;;;;;;;11.25;6.10;;;;;;;17.37;42.27;101676.72;4972948;28;20408;-78
2022/11/03 00:20:13;;;;;;;11.77;6.47;;;;;;;17.39;42.50;101689.91;4972812;28;20395;-77
2022/11/03 00:22:39;;;;;;;14.67;6.47;;;;;;;17.27;42.58;101681.56;4972197;28;20513;-77
2022/11/03 00:25:05;;;;;;;11.93;6.47;;;;;;;17.25;42.70;101688.97;4970478;28;20895;-78
2022/11/03 00:27:30;;;;;;;11.65;6.57;;;;;;;17.23;42.86;101691.00;4987706;28;20410;-78
2022/11/03 00:29:56;;;;;;;11.03;7.30;;;;;;;17.14;43.05;101694.81;4970559;28;20391;-78
2022/11/03 00:32:21;;;;;;;13.07;6.90;;;;;;;17.23;42.99;101693.66;5002078;28;20486;-77
2022/11/03 00:34:47;;;;;;;13.30;6.77;;;;;;;17.26;42.82;101695.16;4971555;28;20391;-78
2022/11/03 00:37:12;;;;;;;13.30;6.57;;;;;;;17.27;42.88;101688.75;4970676;28;20729;-78
2022/11/03 00:39:38;;;;;;;13.40;6.80;;;;;;;17.28;42.77;101682.41;4972177;28;20466;-78
2022/11/03 00:42:03;;;;;;;12.70;6.77;;;;;;;17.31;42.64;101684.72;4970289;28;20387;-79
2022/11/03 00:44:29;;;;;;;13.97;7.10;;;;;;;17.24;42.74;101681.94;4973817;28;20859;-78
2022/11/03 00:46:55;;;;;;;12.57;7.17;;;;;;;17.18;43.00;101685.41;4988632;28;20392;-78
2022/11/03 00:49:20;;;;;;;13.13;6.80;;;;;;;17.16;43.20;101679.38;4974021;28;20395;-78
2022/11/03 00:51:46;;;;;;;12.47;6.87;;;;;;;17.10;43.35;101686.31;4973711;28;20401;-78
2022/11/03 00:54:11;;;;;;;12.73;7.07;;;;;;;17.13;43.26;101688.63;4972276;28;20409;-77
2022/11/03 00:56:39;;;;;;;14.02;6.90;;;;;;;17.22;42.98;101681.31;4972907;28;20399;-77
2022/11/03 00:59:06;;;;;;;13.98;6.75;;;;;;;17.18;43.11;101683.53;4970963;28;20396;-78
2022/11/03 01:01:39;;;;;;;11.73;6.82;;;;;;;17.16;43.08;101679.38;5005107;28;20835;-78
2022/11/03 01:06:53;;;;;;;13.20;6.93;;;;;;;17.12;43.42;101691.50;4969502;28;20501;-77
2022/11/03 01:09:20;;;;;;;12.25;6.90;;;;;;;17.05;43.43;101690.59;4978049;28;20402;-76
2022/11/03 01:11:58;;;;;;;12.27;6.70;;;;;;;17.04;43.43;101691.63;4976042;28;20463;-76
2022/11/03 01:14:31;;;;;;;14.27;7.20;;;;;;;16.98;43.56;101687.88;4978240;28;20403;-76
2022/11/03 01:16:57;;;;;;;13.27;6.80;;;;;;;16.87;43.68;101686.50;4978058;28;20474;-77
2022/11/03 01:19:24;;;;;;;16.13;7.15;;;;;;;16.82;43.83;101688.88;4975814;28;20399;-77
2022/11/03 01:21:50;;;;;;;12.65;7.57;;;;;;;16.83;43.79;101687.88;4969624;28;20429;-78
2022/11/03 01:24:15;;;;;;;11.57;6.70;;;;;;;16.73;44.02;101685.47;4970576;28;20885;-79
2022/11/03 01:26:41;;;;;;;11.23;6.83;;;;;;;16.66;44.09;101683.72;4972105;28;20451;-78
2022/11/03 01:29:06;;;;;;;17.03;8.13;;;;;;;16.52;44.50;101685.41;4974264;28;20395;-79
2022/11/03 01:31:32;;;;;;;12.77;6.93;;;;;;;16.50;44.44;101690.94;4989402;28;20410;-78
2022/11/03 01:33:58;;;;;;;12.87;7.00;;;;;;;16.49;44.52;101689.25;4990028;28;21116;-78
2022/11/03 01:36:24;;;;;;;12.65;6.72;;;;;;;16.52;44.49;101690.75;4968007;28;20490;-79
2022/11/03 01:38:50;;;;;;;13.93;6.72;;;;;;;16.47;44.80;101685.94;4962555;28;20406;-79
2022/11/03 01:41:17;;;;;;;13.70;6.97;;;;;;;16.41;44.94;101697.41;4962046;28;20440;-79
2022/11/03 01:43:43;;;;;;;14.90;6.93;;;;;;;16.47;44.83;101695.81;4961045;28;20416;-79
2022/11/03 01:46:18;;;;;;;19.37;7.70;;;;;;;16.44;44.79;101697.03;4973195;28;20415;-79
2022/11/03 01:49:05;;;;;;;12.65;6.97;;;;;;;16.35;45.13;101693.63;4975624;28;20395;-79
2022/11/03 01:51:33;;;;;;;12.60;7.00;;;;;;;16.36;45.18;101708.63;4969261;28;20391;-79
2022/11/03 01:54:04;;;;;;;11.88;6.85;;;;;;;16.22;45.60;101698.75;4978173;28;20399;-79
2022/11/03 01:56:33;;;;;;;11.90;7.35;;;;;;;16.22;45.63;101699.59;4977180;28;20426;-79
2022/11/03 01:58:59;;;;;;;14.70;6.88;;;;;;;16.23;45.60;101703.09;5009892;28;20391;-80
2022/11/03 02:01:25;;;;;;;11.52;7.25;;;;;;;16.30;45.43;101705.88;4972841;28;20469;-79
2022/11/03 02:03:55;;;;;;;11.13;6.90;;;;;;;16.28;45.31;101708.75;4978772;28;20447;-79
2022/11/03 02:06:24;;;;;;;14.30;7.47;;;;;;;16.15;45.86;101711.19;4974012;28;20776;-79
2022/11/03 02:09:00;;;;;;;14.15;7.68;;;;;;;16.02;46.06;101718.00;4978366;28;20490;-79
2022/11/03 02:14:12;;;;;;;12.82;7.63;;;;;;;16.00;46.20;101717.34;4979613;28;20491;-79
2022/11/03 02:16:41;;;;;;;13.23;8.18;;;;;;;15.89;46.34;101716.97;4969440;28;20403;-79
2022/11/03 02:19:20;;;;;;;16.08;7.90;;;;;;;15.95;46.38;101719.72;4971608;28;20392;-79
2022/11/03 02:21:58;;;;;;;17.33;9.40;;;;;;;15.89;46.34;101716.97;4974906;28;20903;-79
2022/11/03 02:24:40;;;;;;;13.77;8.23;;;;;;;15.96;46.46;101720.59;4977920;28;20422;-79
2022/11/03 02:27:05;;;;;;;17.30;9.35;;;;;;;15.93;46.36;101726.28;4970276;28;20872;-80
2022/11/03 02:29:31;;;;;;;18.50;9.30;;;;;;;15.86;46.49;101721.69;4978608;28;20562;-79
2022/11/03 02:32:04;;;;;;;15.45;9.13;;;;;;;15.86;46.67;101723.50;4978621;28;20447;-80
2022/11/03 02:34:41;;;;;;;18.07;9.53;;;;;;;15.88;46.49;101734.84;5009304;28;20414;-80
2022/11/03 02:37:14;;;;;;;15.83;9.03;;;;;;;15.68;46.92;101721.94;4978324;28;20399;-80
2022/11/03 02:39:46;;;;;;;18.90;9.38;;;;;;;15.75;46.76;101726.59;4968398;28;20492;-79
2022/11/03 02:42:14;;;;;;;17.57;9.03;;;;;;;15.77;46.67;101728.09;4975737;28;20468;-79
2022/11/03 02:44:42;;;;;;;15.20;8.93;;;;;;;15.75;46.50;101730.09;4969770;28;20415;-78
2022/11/03 02:47:10;;;;;;;15.25;8.45;;;;;;;15.65;46.47;101724.97;4965397;28;20872;-77
2022/11/03 02:49:54;;;;;;;16.73;9.50;;;;;;;15.65;46.68;101724.97;4973907;28;20450;-78
2022/11/03 02:52:51;;;;;;;17.45;9.20;;;;;;;15.64;46.59;101723.31;4975364;28;20392;-78
2022/11/03 02:55:22;;;;;;;14.30;9.07;;;;;;;15.49;46.97;101717.91;4959878;28;20973;-78
2022/11/03 02:58:14;;;;;;;17.75;9.80;;;;;;;15.54;46.73;101716.53;4973829;28;20811;-78
2022/11/03 03:01:15;;;;;;;15.02;9.32;;;;;;;15.51;46.98;101716.91;4963970;28;20764;-79
2022/11/03 03:03:54;;;;;;;17.50;9.80;;;;;;;15.57;46.68;101722.34;4971667;28;20408;-78
2022/11/03 03:06:29;;;;;;;15.23;9.03;;;;;;;15.52;46.63;101713.22;4975594;28;20512;-79
2022/11/03 03:09:00;;;;;;;18.13;10.77;;;;;;;15.52;46.69;101715.88;4962002;28;20433;-77
2022/11/03 03:11:35;;;;;;;18.10;9.75;;;;;;;15.54;46.69;101716.53;4956354;28;20867;-78
2022/11/03 03:14:18;;;;;;;16.20;9.95;;;;;;;15.55;46.67;101726.22;4973867;28;20427;-79
2022/11/03 03:17:00;;;;;;;16.80;9.80;;;;;;;15.42;47.09;101732.16;4974106;28;20399;-79
2022/11/03 03:19:58;;;;;;;16.83;10.00;;;;;;;15.34;47.55;101721.50;4963574;28;20398;-78
2022/11/03 03:22:29;;;;;;;18.17;10.25;;;;;;;15.35;47.29;101729.34;4973801;28;20439;-79
2022/11/03 03:25:21;;;;;;;16.73;10.10;;;;;;;15.44;47.20;101730.97;4997195;28;20442;-79
2022/11/03 03:27:51;;;;;;;15.95;10.35;;;;;;;15.42;47.01;101726.81;4974891;28;20396;-78
2022/11/03 03:30:17;;;;;;;20.67;10.63;;;;;;;15.47;46.97;101738.63;5005527;28;20395;-78
2022/11/03 03:32:47;;;;;;;17.80;10.25;;;;;;;15.41;46.95;101738.50;4972984;28;20795;-78
2022/11/03 03:35:17;;;;;;;15.98;10.00;;;;;;;15.34;47.05;101735.72;4974681;28;20391;-79
2022/11/03 03:37:47;;;;;;;20.70;10.20;;;;;;;15.39;46.99;101741.34;4976320;28;20406;-79
2022/11/03 03:40:18;;;;;;;18.65;9.75;;;;;;;15.45;46.47;101734.50;4975878;28;20872;-79
2022/11/03 03:42:46;;;;;;;15.77;9.67;;;;;;;15.34;46.71;101732.19;4976467;28;20443;-79
2022/11/03 03:45:12;;;;;;;14.98;9.20;;;;;;;15.25;46.86;101750.97;4976418;28;20457;-79
2022/11/03 03:47:38;;;;;;;14.45;8.75;;;;;;;15.26;46.86;101743.78;4975222;28;20716;-79
2022/11/03 03:50:04;;;;;;;14.83;9.47;;;;;;;15.22;47.13;101737.94;4976366;28;20943;-79
2022/11/03 03:52:33;;;;;;;24.67;13.23;;;;;;;15.18;47.08;101741.13;4976008;28;20399;-78
2022/11/03 03:54:58;;;;;;;18.05;10.05;;;;;;;15.05;47.46;101739.03;4975548;28;20395;-78
2022/11/03 03:57:26;;;;;;;17.25;9.00;;;;;;;14.97;47.79;101731.06;4983286;28;20394;-79
2022/11/03 03:59:51;;;;;;;14.68;8.27;;;;;;;14.87;47.88;101732.13;5000680;28;20474;-79
2022/11/03 04:02:17;;;;;;;16.05;8.77;;;;;;;14.88;48.03;101735.63;4986238;28;20395;-78
2022/11/03 04:04:42;;;;;;;14.67;8.93;;;;;;;14.78;48.21;101726.97;4984451;28;20426;-79
2022/11/03 04:10:00;;;;;;;16.27;9.20;;;;;;;14.68;48.26;101725.34;4982999;28;20399;-79
2022/11/03 04:23:25;;;;;;;15.43;8.83;;;;;;;14.56;48.93;101744.53;4993804;28;20467;-77
2022/11/03 04:25:53;;;;;;;14.40;7.93;;;;;;;14.38;49.12;101742.88;4986782;28;20411;-78
2022/11/03 04:28:18;;;;;;;13.70;8.40;;;;;;;14.28;49.56;101739.59;5015718;28;20895;-79
2022/11/03 04:30:44;;;;;;;12.80;8.60;;;;;;;14.33;49.42;101746.09;4982502;28;20400;-79
2022/11/03 04:33:17;;;;;;;14.07;8.40;;;;;;;14.30;49.39;101748.25;4984075;28;20394;-78
2022/11/03 04:35:43;;;;;;;16.85;9.27;;;;;;;14.36;49.06;101752.91;5012766;28;20458;-81
2022/11/03 04:38:12;;;;;;;14.07;8.02;;;;;;;14.32;49.52;101746.25;4985405;28;20387;-77
2022/11/03 04:40:40;;;;;;;16.70;9.13;;;;;;;14.33;49.03;101756.75;5001784;28;20395;-82
2022/11/03 04:43:15;;;;;;;14.82;8.10;;;;;;;14.19;49.62;101756.59;4985005;28;20422;-78
2022/11/03 04:45:47;;;;;;;15.32;8.80;;;;;;;14.23;49.41;101752.59;4973994;28;20483;-78
2022/11/03 04:48:24;;;;;;;15.35;8.20;;;;;;;14.26;49.38;101746.91;4993790;28;20502;-79
2022/11/03 04:50:58;;;;;;;15.07;8.43;;;;;;;14.28;48.94;101743.09;4992331;28;20393;-78
2022/11/03 04:53:29;;;;;;;15.05;8.75;;;;;;;14.26;49.08;101744.25;5013372;28;20493;-78
2022/11/03 04:55:54;;;;;;;16.52;9.20;;;;;;;14.32;49.06;101746.25;4994460;28;20388;-78
2022/11/03 04:58:34;;;;;;;14.82;8.57;;;;;;;14.29;49.25;101755.41;4994010;28;20397;-79
2022/11/03 05:01:03;;;;;;;13.85;8.20;;;;;;;14.23;49.57;101749.94;5010383;28;20399;-79
2022/11/03 05:03:33;;;;;;;14.38;8.60;;;;;;;14.27;49.46;101745.91;5017184;28;20434;-78
2022/11/03 05:06:11;;;;;;;14.07;8.30;;;;;;;14.46;48.80;101753.56;4982173;28;20415;-80
2022/11/03 05:08:36;;;;;;;16.98;8.55;;;;;;;14.58;48.47;101754.03;4984428;28;20463;-79
2022/11/03 05:11:18;;;;;;;15.82;8.15;;;;;;;14.65;47.92;101754.19;4984397;28;20466;-79
2022/11/03 05:13:43;;;;;;;16.20;8.70;;;;;;;14.70;47.53;101747.34;4986691;28;20398;-80
2022/11/03 05:16:09;;;;;;;12.75;8.13;;;;;;;14.68;47.78;101751.19;4991266;28;20395;-81
2022/11/03 05:18:39;;;;;;;15.63;8.93;;;;;;;14.75;47.74;101759.34;5007212;28;20402;-78
2022/11/03 05:21:21;;;;;;;14.23;8.80;;;;;;;14.84;47.21;101761.00;4990233;28;20400;-79
2022/11/03 05:24:01;;;;;;;26.98;11.20;;;;;;;14.88;47.34;101759.63;5001150;28;20443;-80
2022/11/03 05:26:34;;;;;;;28.90;13.77;;;;;;;14.87;47.34;101764.16;4985614;28;20469;-79
2022/11/03 05:29:03;;;;;;;36.00;15.45;;;;;;;14.93;47.13;101775.13;4954152;28;20410;-80
2022/11/03 05:31:33;;;;;;;23.15;13.55;;;;;;;14.84;47.30;101769.84;4983710;28;20385;-79
2022/11/03 05:34:01;;;;;;;23.87;12.70;;;;;;;14.78;47.35;101769.66;4980438;28;20406;-80
2022/11/03 05:36:29;;;;;;;21.10;11.55;;;;;;;14.71;47.69;101774.84;4987264;28;20388;-80
2022/11/03 05:39:04;;;;;;;27.25;14.98;;;;;;;14.53;48.67;101781.22;4990109;28;20459;-80
2022/11/03 05:41:29;;;;;;;41.23;21.40;;;;;;;14.46;49.26;101779.41;4986840;28;20403;-78
2022/11/03 05:44:04;;;;;;;36.53;20.23;;;;;;;14.52;49.29;101787.56;4992900;28;20463;-79
2022/11/03 05:46:32;;;;;;;41.55;25.38;;;;;;;14.56;49.48;101801.38;4988448;28;21045;-80
2022/11/03 05:49:01;;;;;;;44.65;24.83;;;;;;;14.62;49.53;101802.56;4990825;28;20383;-80
2022/11/03 05:51:47;;;;;;;33.33;19.17;;;;;;;14.70;49.43;101802.56;4989581;28;20403;-78
2022/11/03 05:54:26;;;;;;;29.67;16.20;;;;;;;14.72;49.34;101809.38;4988654;28;20396;-80
2022/11/03 05:56:52;;;;;;;33.72;16.92;;;;;;;14.81;49.54;101812.88;4972143;28;20486;-79
2022/11/03 05:59:25;;;;;;;25.58;14.60;;;;;;;14.84;49.40;101817.88;5002027;28;20415;-80
2022/11/03 06:01:54;;;;;;;24.98;15.05;;;;;;;14.84;49.45;101830.41;4966868;29;20381;-79
2022/11/03 06:04:28;;;;;;;24.60;13.77;;;;;;;14.82;49.62;101827.91;4981573;28;20387;-79
2022/11/03 06:07:00;;;;;;;25.02;14.25;;;;;;;14.78;49.65;101826.56;4986169;28;20478;-83
2022/11/03 06:09:27;;;;;;;20.13;13.48;;;;;;;14.84;49.75;101830.41;4985545;28;20376;-79
2022/11/03 06:11:59;;;;;;;22.85;13.32;;;;;;;14.87;49.71;101846.06;5004046;28;20391;-80
2022/11/03 06:14:28;;;;;;;23.10;12.75;;;;;;;14.89;49.96;101838.69;5021213;28;20739;-79
2022/11/03 06:16:59;;;;;;;24.65;13.52;;;;;;;14.93;49.72;101845.41;4988674;28;20525;-79
2022/11/03 06:19:28;;;;;;;24.67;13.38;;;;;;;15.06;49.68;101858.19;4990547;28;20410;-81
2022/11/03 06:21:57;;;;;;;21.10;12.38;;;;;;;15.05;49.11;101865.38;4976539;28;20413;-81
2022/11/03 06:24:29;;;;;;;24.00;13.37;;;;;;;15.05;49.18;101862.72;4988791;28;20394;-79
2022/11/03 06:26:57;;;;;;;30.52;13.65;;;;;;;15.20;48.94;101867.34;4989908;28;20395;-81
2022/11/03 06:29:23;;;;;;;27.90;14.50;;;;;;;15.27;48.81;101857.63;4990182;28;20407;-77
2022/11/03 06:31:54;;;;;;;25.88;14.00;;;;;;;15.28;48.62;101865.47;4986228;28;20394;-79
2022/11/03 06:34:40;;;;;;;27.23;13.57;;;;;;;15.19;49.06;101869.16;4988639;28;20384;-80
2022/11/03 06:37:22;;;;;;;24.40;13.05;;;;;;;15.15;48.93;101861.69;5005445;28;20394;-80
2022/11/03 06:39:49;;;;;;;24.27;13.18;;;;;;;15.16;49.06;101866.84;4987892;28;20385;-81
2022/11/03 06:42:18;;;;;;;25.42;13.93;;;;;;;15.17;48.95;101871.19;5000657;28;20397;-78
2022/11/03 06:44:49;;;;;;;30.47;14.17;;;;;;;15.24;49.01;101874.00;4977071;28;20463;-79
2022/11/03 06:47:23;;;;;;;25.23;13.47;;;;;;;15.24;48.92;101874.00;4979150;28;20401;-79
2022/11/03 06:49:58;;;;;;;24.52;12.70;;;;;;;15.13;49.51;101880.53;4987591;28;20402;-79
2022/11/03 06:52:33;;;;;;;22.80;12.25;;;;;;;15.19;49.45;101874.50;4968177;28;20383;-79
2022/11/03 06:55:25;;;;;;;20.52;11.50;;;;;;;15.23;49.58;101878.53;5000216;28;20380;-78
2022/11/03 06:57:56;;;;;;;21.43;11.87;;;;;;;15.31;49.26;101880.31;4987666;28;20399;-79
2022/11/03 07:00:29;;;;;;;19.52;10.57;;;;;;;15.28;49.54;101889.50;5000893;28;20395;-80
2022/11/03 07:02:59;;;;;;;17.40;10.25;;;;;;;15.18;49.82;101882.69;4984827;28;20476;-79
2022/11/03 07:05:28;;;;;;;17.02;9.82;;;;;;;15.24;49.87;101893.53;4992617;28;20890;-80
2022/11/03 07:07:59;;;;;;;14.88;9.73;;;;;;;15.49;49.31;101891.59;5023052;28;20405;-79
2022/11/03 07:10:28;;;;;;;18.02;9.60;;;;;;;15.58;49.31;101894.25;4993705;28;20398;-80
2022/11/03 07:12:54;;;;;;;18.83;9.20;;;;;;;15.59;49.25;101886.06;4991277;28;20391;-77
2022/11/03 07:15:27;;;;;;;15.02;9.23;;;;;;;15.57;49.70;101897.91;5005029;28;20399;-79
2022/11/03 07:17:53;;;;;;;12.75;7.32;;;;;;;15.41;49.71;101897.00;5016321;28;20421;-79
2022/11/03 07:20:20;;;;;;;14.13;7.97;;;;;;;15.45;49.82;101894.81;4992775;28;20383;-80
2022/11/03 07:22:49;;;;;;;14.68;7.95;;;;;;;15.50;49.85;101903.13;5006703;28;20435;-79
2022/11/03 07:25:19;;;;;;;14.80;8.10;;;;;;;15.51;49.76;101903.97;5007663;28;20407;-80
2022/11/03 07:27:49;;;;;;;11.73;7.93;;;;;;;15.59;49.72;101901.25;4991131;28;20398;-80
2022/11/03 07:30:29;;;;;;;14.03;8.10;;;;;;;15.63;49.60;101900.72;4989386;28;20396;-78
2022/11/03 07:33:01;;;;;;;13.05;7.82;;;;;;;15.75;49.45;101895.84;4988897;28;20376;-80
2022/11/03 07:35:31;;;;;;;12.88;7.90;;;;;;;15.66;49.72;101900.41;4989776;28;20926;-79
2022/11/03 07:38:01;;;;;;;12.18;7.97;;;;;;;15.84;49.09;101896.63;4998462;28;20739;-79
2022/11/03 07:40:27;;;;;;;12.65;8.05;;;;;;;15.85;49.34;101893.78;4987183;28;20885;-80
2022/11/03 07:42:59;;;;;;;13.70;7.60;;;;;;;16.15;48.87;101890.44;4990915;28;20451;-79
2022/11/03 07:46:03;;;;;;;13.90;7.05;;;;;;;16.00;48.96;101885.84;5023237;28;20485;-82
2022/11/03 07:48:50;;;;;;;10.77;7.13;;;;;;;15.84;49.39;101888.63;4979849;28;20792;-78
2022/11/03 07:51:21;;;;;;;11.77;6.95;;;;;;;15.66;49.87;101887.03;4987901;28;20432;-79
2022/11/03 07:53:49;;;;;;;14.30;8.32;;;;;;;15.95;49.25;101890.88;4989710;28;20748;-78
2022/11/03 07:56:22;;;;;;;12.98;7.38;;;;;;;16.03;48.99;101896.19;4988703;28;20398;-80
2022/11/03 07:59:10;;;;;;;11.03;7.03;;;;;;;15.92;49.20;101879.72;4980882;28;20396;-78
2022/11/03 08:01:46;;;;;;;12.23;7.10;;;;;;;16.08;48.93;101876.09;4983752;28;20383;-81
2022/11/03 08:04:18;;;;;;;12.15;7.03;;;;;;;16.28;48.39;101873.78;4988606;28;20399;-78
2022/11/03 08:06:44;;;;;;;12.48;7.00;;;;;;;16.32;48.50;101875.09;4987523;28;20400;-80
2022/11/03 08:09:11;;;;;;;13.90;7.93;;;;;;;16.30;48.48;101875.28;4987455;28;20387;-79
2022/11/03 08:11:37;;;;;;;10.35;7.32;;;;;;;16.33;48.35;101866.03;4988877;28;20395;-80
2022/11/03 08:14:03;;;;;;;13.07;7.30;;;;;;;16.68;47.51;101861.91;4989696;28;20387;-82
2022/11/03 08:16:30;;;;;;;12.80;6.95;;;;;;;16.79;47.40;101868.66;4989819;28;20376;-79
2022/11/03 08:18:56;;;;;;;11.77;7.32;;;;;;;16.83;47.36;101856.59;4989067;28;20482;-80
2022/11/03 08:21:22;;;;;;;10.60;6.20;;;;;;;16.70;47.34;101859.88;4992548;28;20449;-78
2022/11/03 08:23:47;;;;;;;10.73;5.95;;;;;;;16.39;48.20;101870.69;4990783;28;20415;-80
2022/11/03 08:26:13;;;;;;;11.40;6.85;;;;;;;16.49;48.16;101865.06;4988413;28;20407;-80
2022/11/03 08:28:41;;;;;;;10.70;6.93;;;;;;;16.57;47.87;101857.00;5005439;28;20494;-79
2022/11/03 08:31:07;;;;;;;12.17;7.43;;;;;;;16.82;47.60;101860.25;4990735;28;20379;-80
2022/11/03 08:33:34;;;;;;;12.00;7.33;;;;;;;16.62;47.66;101859.97;4984347;28;20393;-81
2022/11/03 08:36:00;;;;;;;12.20;7.55;;;;;;;16.68;47.58;101855.72;4987008;28;20387;-79
2022/11/03 08:38:26;;;;;;;16.25;8.05;;;;;;;16.75;47.42;101848.63;5019080;28;20406;-80
2022/11/03 08:40:54;;;;;;;12.25;8.20;;;;;;;16.97;47.10;101854.94;4978085;28;20474;-78
2022/11/03 08:43:20;;;;;;;13.43;7.00;;;;;;;16.89;47.31;101858.53;5021385;28;20398;-79
2022/11/03 08:45:46;;;;;;;12.52;7.53;;;;;;;16.85;47.62;101853.72;4988385;28;20421;-78
2022/11/03 08:48:12;;;;;;;15.95;7.93;;;;;;;17.05;47.21;101857.53;5006156;28;20394;-80
2022/11/03 08:50:37;;;;;;;14.57;7.78;;;;;;;17.19;46.75;101856.66;4993183;28;20428;-77
2022/11/03 08:53:03;;;;;;;12.03;7.43;;;;;;;17.09;46.99;101853.47;5005340;28;20386;-77
2022/11/03 08:55:28;;;;;;;11.95;7.45;;;;;;;17.21;46.97;101856.50;5007989;28;20462;-79
2022/11/03 08:57:54;;;;;;;13.37;7.70;;;;;;;17.46;46.50;101848.97;5008616;28;20453;-79
2022/11/03 09:00:21;;;;;;;11.68;7.07;;;;;;;17.64;46.27;101850.41;4997826;28;20378;-79
2022/11/03 09:02:46;;;;;;;13.15;7.80;;;;;;;17.81;45.90;101849.19;4994755;28;20404;-76
2022/11/03 09:05:12;;;;;;;13.17;7.67;;;;;;;17.70;46.07;101846.97;5007209;28;20433;-79
2022/11/03 09:07:38;;;;;;;12.77;7.68;;;;;;;17.56;46.09;101832.59;4995001;28;20391;-80
2022/11/03 09:10:06;;;;;;;13.43;7.28;;;;;;;17.68;46.02;101835.59;5004165;28;20402;-79
2022/11/03 09:12:32;;;;;;;12.63;6.32;;;;;;;17.32;46.43;101831.06;5002654;28;20402;-78
2022/11/03 09:14:59;;;;;;;12.30;7.22;;;;;;;17.32;46.78;101833.75;5000490;28;20408;-79
2022/11/03 09:17:25;;;;;;;11.05;6.57;;;;;;;17.64;45.96;101842.38;5018753;28;20455;-78
2022/11/03 09:19:50;;;;;;;11.63;7.70;;;;;;;17.61;45.90;101830.19;4988302;28;20887;-81
2022/11/03 09:22:16;;;;;;;14.10;8.38;;;;;;;18.00;45.36;101822.75;4985478;28;20456;-80
2022/11/03 09:24:43;;;;;;;12.07;7.57;;;;;;;18.23;44.91;101817.19;4988865;28;20966;-80
2022/11/03 09:27:09;;;;;;;11.95;7.63;;;;;;;18.44;44.46;101819.84;5017148;28;20813;-78
2022/11/03 09:29:34;;;;;;;12.98;7.75;;;;;;;18.52;44.21;101808.94;4964890;28;20874;-78
2022/11/03 09:32:00;;;;;;;12.85;7.55;;;;;;;18.58;44.27;101817.25;4998043;28;20403;-78
2022/11/03 09:34:26;;;;;;;11.15;7.35;;;;;;;18.50;44.17;101815.53;4985331;28;20398;-79
2022/11/03 09:36:52;;;;;;;14.88;8.02;;;;;;;18.65;43.76;101807.38;4984648;28;20474;-78
2022/11/03 09:39:17;;;;;;;15.77;8.73;;;;;;;18.81;43.58;101807.09;4981761;28;20403;-78
2022/11/03 09:41:43;;;;;;;12.20;7.82;;;;;;;18.94;43.23;101805.50;4979115;28;20387;-78
2022/11/03 09:44:10;;;;;;;14.57;7.60;;;;;;;18.76;43.73;101801.44;5018814;28;20396;-78
2022/11/03 09:46:35;;;;;;;13.52;7.65;;;;;;;18.84;43.70;101806.69;4985040;28;20880;-79
2022/11/03 09:49:03;;;;;;;12.73;8.07;;;;;;;18.84;43.35;101795.13;4985667;28;20398;-78
2022/11/03 09:51:29;;;;;;;14.82;7.60;;;;;;;18.93;43.26;101796.63;4985285;28;20402;-80
2022/11/03 09:53:57;;;;;;;10.32;6.75;;;;;;;18.93;43.34;101793.13;4984530;28;20411;-78
2022/11/03 09:56:25;;;;;;;12.07;7.53;;;;;;;18.95;43.59;101794.56;4988385;28;20868;-78
2022/11/03 09:58:51;;;;;;;12.93;8.05;;;;;;;19.04;43.23;101793.38;5020082;28;20399;-79
2022/11/03 10:01:16;;;;;;;16.10;7.90;;;;;;;19.22;42.80;101784.75;4988373;28;20418;-78
2022/11/03 10:03:42;;;;;;;13.68;8.10;;;;;;;19.12;42.97;101788.84;5003595;28;20441;-79
2022/11/03 10:06:08;;;;;;;13.07;8.25;;;;;;;19.12;42.92;101770.84;4989353;28;20410;-79
2022/11/03 10:08:37;;;;;;;13.03;7.57;;;;;;;19.32;42.82;101780.84;4988118;28;20388;-81
2022/11/03 10:11:05;;;;;;;15.82;9.13;;;;;;;19.44;42.05;101772.00;4986615;28;20384;-80
2022/11/03 10:13:36;;;;;;;16.15;9.25;;;;;;;19.41;41.86;101772.41;4991454;28;20426;-80
2022/11/03 10:16:05;;;;;;;17.85;10.93;;;;;;;19.63;41.52;101769.56;4991307;28;20395;-80
2022/11/03 10:18:32;;;;;;;18.98;10.40;;;;;;;19.71;40.99;101774.75;4988647;28;20403;-79
2022/11/03 10:21:03;;;;;;;20.08;10.73;;;;;;;19.61;41.06;101760.88;4978953;28;20399;-79
2022/11/03 10:23:28;;;;;;;16.60;10.63;;;;;;;19.83;40.58;101756.16;4989616;28;20454;-79
2022/11/03 10:26:11;;;;;;;16.87;10.70;;;;;;;19.53;40.33;101753.81;4990682;28;20419;-81
2022/11/03 10:28:37;;;;;;;18.63;10.65;;;;;;;19.52;39.97;101760.25;4989420;28;20895;-79
2022/11/03 10:31:18;;;;;;;20.70;10.68;;;;;;;19.67;39.80;101758.19;4975352;28;20513;-79
2022/11/03 10:33:53;;;;;;;22.67;11.70;;;;;;;19.77;39.70;101751.59;4992555;28;20444;-80
2022/11/03 10:36:39;;;;;;;24.25;11.27;;;;;;;19.87;39.87;101746.66;4990539;28;20423;-78
2022/11/03 10:39:32;;;;;;;19.60;11.07;;;;;;;20.05;39.63;101744.16;4989339;28;20428;-78
2022/11/03 10:41:58;;;;;;;19.93;10.90;;;;;;;20.17;39.40;101736.28;4987389;28;20391;-78
2022/11/03 10:44:28;;;;;;;17.90;9.90;;;;;;;20.12;39.27;101732.56;4990118;28;20392;-80
2022/11/03 10:46:59;;;;;;;15.93;10.52;;;;;;;20.18;39.27;101734.41;4986062;28;20391;-79
2022/11/03 10:49:28;;;;;;;21.98;10.48;;;;;;;20.14;39.36;101731.31;4986912;28;20403;-81
2022/11/03 10:52:06;;;;;;;21.05;11.63;;;;;;;20.25;39.05;101729.84;4987746;28;20478;-80
2022/11/03 10:54:34;;;;;;;16.75;10.40;;;;;;;20.23;39.17;101721.16;4990405;28;20463;-79
2022/11/03 10:57:00;;;;;;;16.98;10.90;;;;;;;20.32;39.27;101730.66;4991924;28;20402;-79
2022/11/03 10:59:36;;;;;;;20.00;11.18;;;;;;;20.51;38.96;101720.91;4989985;28;20382;-79
2022/11/03 11:02:08;;;;;;;17.90;11.20;;;;;;;20.55;38.89;101719.44;4990413;28;20391;-78
2022/11/03 11:04:35;;;;;;;17.83;10.57;;;;;;;20.68;38.77;101709.69;4990268;28;20391;-80
2022/11/03 11:07:02;;;;;;;22.23;11.35;;;;;;;20.68;38.71;101707.81;4990597;28;20461;-81
2022/11/03 11:09:27;;;;;;;21.50;10.88;;;;;;;20.72;38.84;101711.72;4991736;28;20445;-80
2022/11/03 11:12:06;;;;;;;18.67;10.85;;;;;;;20.58;38.56;101708.25;4989032;28;20397;-79
2022/11/03 11:14:38;;;;;;;17.75;11.32;;;;;;;20.64;38.71;101700.38;4983186;28;20433;-78
2022/11/03 11:17:05;;;;;;;16.42;10.82;;;;;;;20.85;38.59;101697.41;4970325;28;20422;-80
2022/11/03 11:20:08;;;;;;;18.08;12.57;;;;;;;20.84;38.61;101682.25;5021423;28;20456;-79
2022/11/03 11:22:34;;;;;;;18.02;11.43;;;;;;;20.85;38.56;101692.00;4994338;28;20754;-79
2022/11/03 11:25:02;;;;;;;21.13;11.93;;;;;;;20.85;38.45;101692.00;4996705;28;20413;-79
2022/11/03 11:27:31;;;;;;;18.70;11.65;;;;;;;20.92;38.53;101684.72;4988682;28;20489;-79
2022/11/03 11:29:57;;;;;;;19.77;11.18;;;;;;;20.96;38.42;101675.16;4986770;28;20488;-79
2022/11/03 11:32:38;;;;;;;19.33;11.50;;;;;;;20.85;38.64;101672.28;4991147;28;20387;-80
2022/11/03 11:35:36;;;;;;;20.42;11.43;;;;;;;20.87;38.77;101671.06;4992398;28;20462;-81
2022/11/03 11:38:39;;;;;;;19.35;11.70;;;;;;;20.88;38.71;101666.47;5021925;28;20392;-79
2022/11/03 11:41:05;;;;;;;20.25;11.80;;;;;;;20.93;38.91;101656.69;5018129;28;20458;-79
2022/11/03 11:43:32;;;;;;;20.98;11.88;;;;;;;20.99;38.63;101663.94;4975916;28;20538;-79
2022/11/03 11:46:22;;;;;;;18.60;11.95;;;;;;;20.88;38.92;101661.91;4987870;28;20423;-79
2022/11/03 11:49:03;;;;;;;22.17;12.32;;;;;;;21.00;38.77;101662.06;4988949;28;20451;-79
2022/11/03 11:51:33;;;;;;;21.85;11.85;;;;;;;20.99;38.74;101655.00;4988359;28;20375;-79